Time,TemperatureF,DewpointF,PressureIn,WindDirection,WindDirectionDegrees,WindSpeedMPH,WindSpeedGustMPH,Humidity,HourlyPrecipIn,Conditions,Clouds,dailyrainin,SoftwareType,DateUTC
2013-06-06 00:01:00,73.3,71.8,29.95,NE,34,0.0,0.0,95,0.00,,,0.00,WUHU216DAVISVP2,2013-06-06 04:01:00,
2013-06-06 00:06:00,73.2,71.7,29.95,NE,34,0.0,0.0,95,0.00,,,0.00,WUHU216DAVISVP2,2013-06-06 04:06:00,
2013-06-06 00:11:00,73.1,71.6,29.94,NE,34,0.0,0.0,95,0.00,,,0.00,WUHU216DAVISVP2,2013-06-06 04:11:00,
2013-06-06 00:16:00,73.0,71.5,29.94,NE,34,0.0,0.0,95,0.00,,,0.00,WUHU216DAVISVP2,2013-06-06 04:16:00,
2013-06-06 00:21:00,73.0,71.5,29.94,NE,34,0.0,0.0,95,0.00,,,0.00,WUHU216DAVISVP2,2013-06-06 04:21:00,
2013-06-06 00:26:00,72.9,71.4,29.94,NE,34,0.0,0.0,95,0.00,,,0.00,WUHU216DAVISVP2,2013-06-06 04:26:00,
2013-06-06 00:31:00,72.9,71.4,29.94,NE,34,0.0,0.0,95,0.00,,,0.00,WUHU216DAVISVP2,2013-06-06 04:31:00,
2013-06-06 00:36:00,72.9,71.4,29.94,NE,34,0.0,0.0,95,0.00,,,0.00,WUHU216DAVISVP2,2013-06-06 04:36:00,
2013-06-06 00:41:00,72.9,71.7,29.94,NE,34,0.0,0.0,96,0.00,,,0.00,WUHU216DAVISVP2,2013-06-06 04:41:00,
2013-06-06 00:46:00,72.9,71.7,29.94,NE,34,0.0,0.0,96,0.00,,,0.00,WUHU216DAVISVP2,2013-06-06 04:46:00,
2013-06-06 00:51:00,72.9,71.7,29.94,NE,34,0.0,0.0,96,0.00,,,0.00,WUHU216DAVISVP2,2013-06-06 04:51:00,
2013-06-06 00:56:00,72.9,71.7,29.94,NE,34,0.0,0.0,96,0.00,,,0.00,WUHU216DAVISVP2,2013-06-06 04:56:00,
2013-06-06 01:01:00,73.0,71.8,29.94,NE,34,0.0,0.0,96,0.00,,,0.00,WUHU216DAVISVP2,2013-06-06 05:01:00,
2013-06-06 01:07:00,73.0,71.8,29.94,NE,34,0.0,0.0,96,0.00,,,0.00,WUHU216DAVISVP2,2013-06-06 05:07:00,
2013-06-06 01:12:00,73.0,71.8,29.94,NE,34,0.0,0.0,96,0.00,,,0.00,WUHU216DAVISVP2,2013-06-06 05:12:00,
2013-06-06 01:17:00,73.1,71.9,29.94,NE,34,0.0,0.0,96,0.00,,,0.00,WUHU216DAVISVP2,2013-06-06 05:17:00,
2013-06-06 01:22:00,73.1,71.9,29.94,NE,34,0.0,0.0,96,0.00,,,0.00,WUHU216DAVISVP2,2013-06-06 05:22:00,
2013-06-06 01:27:00,73.2,72.3,29.94,NE,34,0.0,0.0,97,0.00,,,0.00,WUHU216DAVISVP2,2013-06-06 05:27:00,
2013-06-06 01:32:00,73.3,72.4,29.93,NE,34,0.0,0.0,97,0.00,,,0.00,WUHU216DAVISVP2,2013-06-06 05:32:00,
2013-06-06 01:37:00,73.4,72.5,29.93,NE,34,0.0,0.0,97,0.00,,,0.00,WUHU216DAVISVP2,2013-06-06 05:37:00,
2013-06-06 01:42:00,73.4,72.2,29.93,NE,34,0.0,0.0,96,0.00,,,0.00,WUHU216DAVISVP2,2013-06-06 05:42:00,
2013-06-06 01:47:00,73.3,72.1,29.93,NE,34,0.0,0.0,96,0.00,,,0.00,WUHU216DAVISVP2,2013-06-06 05:47:00,
2013-06-06 01:52:00,73.3,72.1,29.93,NE,34,0.0,0.0,96,0.00,,,0.00,WUHU216DAVISVP2,2013-06-06 05:52:00,
2013-06-06 01:57:00,73.3,72.1,29.93,NE,34,0.0,0.0,96,0.00,,,0.00,WUHU216DAVISVP2,2013-06-06 05:57:00,
2013-06-06 02:02:00,73.3,72.4,29.92,NE,34,0.0,0.0,97,0.00,,,0.00,WUHU216DAVISVP2,2013-06-06 06:02:00,
2013-06-06 02:07:00,73.3,72.1,29.92,NE,34,0.0,0.0,96,0.00,,,0.00,WUHU216DAVISVP2,2013-06-06 06:07:00,
2013-06-06 02:12:00,73.3,72.4,29.92,NE,34,0.0,0.0,97,0.00,,,0.00,WUHU216DAVISVP2,2013-06-06 06:12:00,
2013-06-06 02:17:00,73.3,72.4,29.92,NE,34,0.0,0.0,97,0.00,,,0.00,WUHU216DAVISVP2,2013-06-06 06:17:00,
2013-06-06 02:22:00,73.4,72.5,29.92,NE,34,0.0,0.0,97,0.00,,,0.00,WUHU216DAVISVP2,2013-06-06 06:22:00,
2013-06-06 02:27:00,73.5,72.6,29.92,NE,34,0.0,0.0,97,0.00,,,0.00,WUHU216DAVISVP2,2013-06-06 06:27:00,
2013-06-06 02:32:00,73.5,72.6,29.91,NE,34,0.0,0.0,97,0.00,,,0.00,WUHU216DAVISVP2,2013-06-06 06:32:00,
2013-06-06 02:37:00,73.5,72.6,29.91,NE,34,0.0,0.0,97,0.00,,,0.00,WUHU216DAVISVP2,2013-06-06 06:37:00,
2013-06-06 02:42:00,73.6,72.7,29.91,NE,34,0.0,0.0,97,0.00,,,0.00,WUHU216DAVISVP2,2013-06-06 06:42:00,
2013-06-06 02:47:00,73.7,72.8,29.91,NE,34,0.0,0.0,97,0.00,,,0.00,WUHU216DAVISVP2,2013-06-06 06:47:00,
2013-06-06 02:52:00,73.7,73.1,29.90,NE,34,0.0,0.0,98,0.00,,,0.00,WUHU216DAVISVP2,2013-06-06 06:52:00,
2013-06-06 02:57:00,73.9,73.3,29.90,NE,34,0.0,0.0,98,0.00,,,0.00,WUHU216DAVISVP2,2013-06-06 06:57:00,
2013-06-06 03:02:00,74.0,73.4,29.90,NE,34,0.0,0.0,98,0.00,,,0.00,WUHU216DAVISVP2,2013-06-06 07:02:00,
2013-06-06 03:07:00,74.2,73.6,29.89,NE,34,0.0,0.0,98,0.00,,,0.00,WUHU216DAVISVP2,2013-06-06 07:07:00,
2013-06-06 03:12:00,74.2,73.6,29.90,NE,34,0.0,0.0,98,0.00,,,0.00,WUHU216DAVISVP2,2013-06-06 07:12:00,
2013-06-06 03:17:00,74.3,73.7,29.89,NE,34,0.0,0.0,98,0.00,,,0.00,WUHU216DAVISVP2,2013-06-06 07:17:00,
2013-06-06 03:22:00,74.4,73.8,29.89,NE,34,0.0,0.0,98,0.00,,,0.00,WUHU216DAVISVP2,2013-06-06 07:22:00,
2013-06-06 03:27:00,74.5,73.9,29.89,NE,34,0.0,0.0,98,0.00,,,0.00,WUHU216DAVISVP2,2013-06-06 07:27:00,
2013-06-06 03:32:00,74.6,74.0,29.89,NE,34,0.0,0.0,98,0.00,,,0.00,WUHU216DAVISVP2,2013-06-06 07:32:00,
2013-06-06 03:37:00,74.6,74.0,29.89,NE,34,0.0,0.0,98,0.00,,,0.00,WUHU216DAVISVP2,2013-06-06 07:37:00,
2013-06-06 03:42:00,74.7,74.1,29.89,NE,34,0.0,0.0,98,0.00,,,0.00,WUHU216DAVISVP2,2013-06-06 07:42:00,
2013-06-06 03:47:00,74.9,74.3,29.89,NE,34,0.0,0.0,98,0.00,,,0.00,WUHU216DAVISVP2,2013-06-06 07:47:00,
2013-06-06 03:52:00,75.1,74.5,29.89,NE,34,0.0,0.0,98,0.00,,,0.00,WUHU216DAVISVP2,2013-06-06 07:52:00,
2013-06-06 03:57:00,75.2,74.6,29.88,NE,34,0.0,0.0,98,0.00,,,0.00,WUHU216DAVISVP2,2013-06-06 07:57:00,
2013-06-06 04:02:00,75.2,74.6,29.88,NE,34,0.0,0.0,98,0.00,,,0.00,WUHU216DAVISVP2,2013-06-06 08:02:00,
2013-06-06 04:07:00,75.3,74.7,29.88,NE,34,0.0,0.0,98,0.00,,,0.00,WUHU216DAVISVP2,2013-06-06 08:07:00,
2013-06-06 04:12:00,75.3,74.7,29.88,NE,34,0.0,0.0,98,0.00,,,0.00,WUHU216DAVISVP2,2013-06-06 08:12:00,
2013-06-06 04:17:00,75.5,74.9,29.88,NE,34,0.0,0.0,98,0.00,,,0.00,WUHU216DAVISVP2,2013-06-06 08:17:00,
2013-06-06 04:22:00,75.5,74.9,29.88,NE,34,0.0,0.0,98,0.00,,,0.00,WUHU216DAVISVP2,2013-06-06 08:22:00,
2013-06-06 04:27:00,75.5,74.9,29.88,NE,34,0.0,0.0,98,0.00,,,0.00,WUHU216DAVISVP2,2013-06-06 08:27:00,
2013-06-06 04:32:00,75.5,74.9,29.88,NE,34,0.0,0.0,98,0.00,,,0.00,WUHU216DAVISVP2,2013-06-06 08:32:00,
2013-06-06 04:37:00,75.5,74.9,29.88,NE,34,0.0,0.0,98,0.00,,,0.00,WUHU216DAVISVP2,2013-06-06 08:37:00,
2013-06-06 04:42:00,75.5,74.9,29.88,NE,34,0.0,0.0,98,0.00,,,0.00,WUHU216DAVISVP2,2013-06-06 08:42:00,
2013-06-06 04:47:00,75.6,75.0,29.88,NE,34,0.0,0.0,98,0.00,,,0.00,WUHU216DAVISVP2,2013-06-06 08:47:00,
2013-06-06 04:52:00,75.6,75.0,29.88,NE,34,0.0,0.0,98,0.00,,,0.00,WUHU216DAVISVP2,2013-06-06 08:52:00,
2013-06-06 04:57:00,75.8,75.2,29.88,NE,34,0.0,1.0,98,0.00,,,0.00,WUHU216DAVISVP2,2013-06-06 08:57:00,
2013-06-06 05:02:00,75.8,75.2,29.87,NE,34,0.0,1.0,98,0.00,,,0.00,WUHU216DAVISVP2,2013-06-06 09:02:00,
2013-06-06 05:07:00,75.8,75.2,29.87,NE,34,0.0,0.0,98,0.00,,,0.00,WUHU216DAVISVP2,2013-06-06 09:07:00,
2013-06-06 05:12:00,75.9,75.3,29.87,NE,34,0.0,0.0,98,0.00,,,0.00,WUHU216DAVISVP2,2013-06-06 09:12:00,
2013-06-06 05:17:00,75.9,75.3,29.87,NE,34,0.0,0.0,98,0.00,,,0.00,WUHU216DAVISVP2,2013-06-06 09:17:00,
2013-06-06 05:22:00,75.9,75.3,29.87,NE,34,0.0,0.0,98,0.00,,,0.00,WUHU216DAVISVP2,2013-06-06 09:22:00,
2013-06-06 05:27:00,76.0,75.4,29.86,NE,34,0.0,0.0,98,0.00,,,0.00,WUHU216DAVISVP2,2013-06-06 09:27:00,
2013-06-06 05:32:00,76.0,75.4,29.86,NNE,22,0.0,1.0,98,0.00,,,0.00,WUHU216DAVISVP2,2013-06-06 09:32:00,
2013-06-06 05:37:00,76.0,75.4,29.86,NNE,22,0.0,1.0,98,0.00,,,0.00,WUHU216DAVISVP2,2013-06-06 09:37:00,
2013-06-06 05:42:00,76.0,75.1,29.86,NNE,22,0.0,1.0,97,0.00,,,0.00,WUHU216DAVISVP2,2013-06-06 09:42:00,
2013-06-06 05:47:00,76.0,75.1,29.85,SE,134,0.0,2.0,97,0.00,,,0.00,WUHU216DAVISVP2,2013-06-06 09:47:00,
2013-06-06 05:52:00,75.9,75.0,29.85,SE,134,0.0,2.0,97,0.00,,,0.00,WUHU216DAVISVP2,2013-06-06 09:52:00,
2013-06-06 05:57:00,75.7,74.8,29.85,SE,133,0.0,1.0,97,0.00,,,0.00,WUHU216DAVISVP2,2013-06-06 09:57:00,
2013-06-06 06:02:00,75.6,74.4,29.85,SE,135,0.0,1.0,96,0.00,,,0.00,WUHU216DAVISVP2,2013-06-06 10:02:00,
2013-06-06 06:07:00,75.7,74.8,29.85,SE,135,0.0,1.0,97,0.00,,,0.00,WUHU216DAVISVP2,2013-06-06 10:07:00,
2013-06-06 06:12:00,75.8,74.9,29.85,SE,144,0.0,2.0,97,0.00,,,0.00,WUHU216DAVISVP2,2013-06-06 10:12:00,
2013-06-06 06:17:00,76.0,75.1,29.85,SE,144,0.0,2.0,97,0.00,,,0.00,WUHU216DAVISVP2,2013-06-06 10:17:00,
2013-06-06 06:22:00,76.0,75.1,29.84,SE,144,0.0,1.0,97,0.01,,,0.01,WUHU216DAVISVP2,2013-06-06 10:22:00,
2013-06-06 06:27:00,76.2,75.3,29.84,SE,144,0.0,1.0,97,0.01,,,0.01,WUHU216DAVISVP2,2013-06-06 10:27:00,
2013-06-06 06:32:00,76.2,75.3,29.84,SE,143,0.0,0.0,97,0.01,,,0.01,WUHU216DAVISVP2,2013-06-06 10:32:00,
2013-06-06 06:37:00,76.3,75.4,29.84,SE,144,0.0,0.0,97,0.01,,,0.01,WUHU216DAVISVP2,2013-06-06 10:37:00,
2013-06-06 06:42:00,76.3,75.4,29.84,SE,144,0.0,1.0,97,0.01,,,0.01,WUHU216DAVISVP2,2013-06-06 10:42:00,
2013-06-06 06:47:00,76.4,75.5,29.84,SE,144,0.0,1.0,97,0.01,,,0.01,WUHU216DAVISVP2,2013-06-06 10:47:00,
2013-06-06 06:52:00,76.4,75.5,29.85,SE,144,0.0,0.0,97,0.01,,,0.01,WUHU216DAVISVP2,2013-06-06 10:52:00,
2013-06-06 06:57:00,76.4,75.5,29.85,SE,144,0.0,0.0,97,0.02,,,0.02,WUHU216DAVISVP2,2013-06-06 10:57:00,
2013-06-06 07:02:00,76.4,75.5,29.85,SE,144,0.0,0.0,97,0.03,,,0.03,WUHU216DAVISVP2,2013-06-06 11:02:00,
2013-06-06 07:07:00,76.5,75.9,29.84,SE,126,1.0,1.0,98,0.04,,,0.04,WUHU216DAVISVP2,2013-06-06 11:07:00,
2013-06-06 07:12:00,75.2,73.3,29.86,NE,49,1.0,6.0,94,0.08,,,0.08,WUHU216DAVISVP2,2013-06-06 11:12:00,
2013-06-06 07:17:00,73.6,72.0,29.86,East,80,0.0,6.0,95,0.14,,,0.14,WUHU216DAVISVP2,2013-06-06 11:17:00,
2013-06-06 07:22:00,72.7,71.2,29.86,ENE,76,0.0,4.0,95,0.18,,,0.19,WUHU216DAVISVP2,2013-06-06 11:22:00,
2013-06-06 07:27:00,72.1,70.9,29.85,ESE,112,0.0,3.0,96,0.22,,,0.23,WUHU216DAVISVP2,2013-06-06 11:27:00,
2013-06-06 07:32:00,71.9,70.7,29.85,ENE,64,0.0,2.0,96,0.25,,,0.26,WUHU216DAVISVP2,2013-06-06 11:32:00,
2013-06-06 07:37:00,71.8,70.9,29.85,ENE,63,0.0,2.0,97,0.26,,,0.27,WUHU216DAVISVP2,2013-06-06 11:37:00,
2013-06-06 07:43:00,71.8,70.9,29.85,SE,125,0.0,2.0,97,0.28,,,0.29,WUHU216DAVISVP2,2013-06-06 11:43:00,
2013-06-06 07:48:00,71.8,71.2,29.84,SE,124,0.0,2.0,98,0.29,,,0.30,WUHU216DAVISVP2,2013-06-06 11:48:00,
2013-06-06 07:53:00,71.9,71.3,29.85,South,189,1.0,2.0,98,0.30,,,0.31,WUHU216DAVISVP2,2013-06-06 11:53:00,
2013-06-06 07:58:00,72.1,71.5,29.85,NNE,32,0.0,2.0,98,0.29,,,0.31,WUHU216DAVISVP2,2013-06-06 11:58:00,
2013-06-06 08:03:00,72.4,71.8,29.86,ENE,57,0.0,3.0,98,0.30,,,0.33,WUHU216DAVISVP2,2013-06-06 12:03:00,
2013-06-06 08:08:00,72.6,72.0,29.86,NE,45,0.0,3.0,98,0.33,,,0.37,WUHU216DAVISVP2,2013-06-06 12:08:00,
2013-06-06 08:13:00,72.7,72.1,29.86,North,9,0.0,3.0,98,0.29,,,0.38,WUHU216DAVISVP2,2013-06-06 12:13:00,
2013-06-06 08:18:00,72.7,72.1,29.86,ESE,121,0.0,3.0,98,0.25,,,0.39,WUHU216DAVISVP2,2013-06-06 12:18:00,
2013-06-06 08:23:00,72.8,72.2,29.86,SSW,208,0.0,4.0,98,0.21,,,0.40,WUHU216DAVISVP2,2013-06-06 12:23:00,
2013-06-06 08:28:00,72.9,72.3,29.87,South,190,0.0,4.0,98,0.16,,,0.40,WUHU216DAVISVP2,2013-06-06 12:28:00,
2013-06-06 08:33:00,72.9,72.3,29.86,South,188,0.0,3.0,98,0.15,,,0.41,WUHU216DAVISVP2,2013-06-06 12:33:00,
2013-06-06 08:38:00,72.9,72.3,29.86,South,185,0.0,3.0,98,0.14,,,0.41,WUHU216DAVISVP2,2013-06-06 12:38:00,
2013-06-06 08:43:00,72.9,72.3,29.86,South,186,0.0,1.0,98,0.13,,,0.42,WUHU216DAVISVP2,2013-06-06 12:43:00,
2013-06-06 08:48:00,73.0,72.7,29.86,South,184,0.0,1.0,99,0.12,,,0.42,WUHU216DAVISVP2,2013-06-06 12:48:00,
2013-06-06 08:53:00,73.2,72.9,29.85,South,174,0.0,1.0,99,0.12,,,0.43,WUHU216DAVISVP2,2013-06-06 12:53:00,
2013-06-06 08:58:00,73.5,73.2,29.86,South,172,0.0,1.0,99,0.11,,,0.43,WUHU216DAVISVP2,2013-06-06 12:58:00,
2013-06-06 09:03:00,73.8,73.5,29.86,South,171,0.0,1.0,99,0.10,,,0.43,WUHU216DAVISVP2,2013-06-06 13:03:00,
2013-06-06 09:08:00,74.1,73.8,29.86,ENE,74,0.0,1.0,99,0.06,,,0.43,WUHU216DAVISVP2,2013-06-06 13:08:00,
2013-06-06 09:13:00,74.2,73.9,29.86,ENE,71,0.0,1.0,99,0.05,,,0.43,WUHU216DAVISVP2,2013-06-06 13:13:00,
2013-06-06 09:18:00,74.2,73.9,29.86,NNE,19,0.0,2.0,99,0.04,,,0.43,WUHU216DAVISVP2,2013-06-06 13:18:00,
2013-06-06 09:23:00,74.2,73.9,29.87,NNE,30,0.0,2.0,99,0.03,,,0.43,WUHU216DAVISVP2,2013-06-06 13:23:00,
2013-06-06 09:28:00,74.0,73.7,29.87,NE,46,0.0,2.0,99,0.03,,,0.43,WUHU216DAVISVP2,2013-06-06 13:28:00,
2013-06-06 09:33:00,73.3,72.7,29.87,NE,46,0.0,3.0,98,0.02,,,0.43,WUHU216DAVISVP2,2013-06-06 13:33:00,
2013-06-06 09:38:00,72.8,72.2,29.87,NE,47,0.0,3.0,98,0.03,,,0.44,WUHU216DAVISVP2,2013-06-06 13:38:00,
2013-06-06 09:43:00,72.7,72.1,29.87,NE,47,0.0,1.0,98,0.02,,,0.44,WUHU216DAVISVP2,2013-06-06 13:43:00,
2013-06-06 09:48:00,72.9,72.3,29.87,NE,46,0.0,1.0,98,0.02,,,0.44,WUHU216DAVISVP2,2013-06-06 13:48:00,
2013-06-06 09:53:00,73.1,72.5,29.87,NE,47,0.0,1.0,98,0.01,,,0.44,WUHU216DAVISVP2,2013-06-06 13:53:00,
2013-06-06 09:58:00,73.4,73.1,29.87,NE,48,0.0,1.0,99,0.02,,,0.45,WUHU216DAVISVP2,2013-06-06 13:58:00,
2013-06-06 10:03:00,73.7,73.4,29.86,East,84,1.0,2.0,99,0.02,,,0.45,WUHU216DAVISVP2,2013-06-06 14:03:00,
2013-06-06 10:08:00,74.1,73.8,29.86,ENE,67,2.0,2.0,99,0.02,,,0.45,WUHU216DAVISVP2,2013-06-06 14:08:00,
2013-06-06 10:13:00,74.4,74.1,29.86,ENE,66,0.0,2.0,99,0.03,,,0.46,WUHU216DAVISVP2,2013-06-06 14:13:00,
2013-06-06 10:18:00,74.6,74.3,29.86,ENE,68,0.0,3.0,99,0.03,,,0.46,WUHU216DAVISVP2,2013-06-06 14:18:00,
2013-06-06 10:23:00,74.7,74.4,29.86,ENE,61,0.0,3.0,99,0.03,,,0.46,WUHU216DAVISVP2,2013-06-06 14:23:00,
2013-06-06 10:28:00,74.5,74.2,29.86,ESE,123,0.0,2.0,99,0.04,,,0.47,WUHU216DAVISVP2,2013-06-06 14:28:00,
2013-06-06 10:33:00,74.6,74.3,29.86,SSE,163,2.0,3.0,99,0.04,,,0.47,WUHU216DAVISVP2,2013-06-06 14:33:00,
2013-06-06 10:38:00,74.7,74.4,29.86,ENE,76,0.0,3.0,99,0.03,,,0.47,WUHU216DAVISVP2,2013-06-06 14:38:00,
2013-06-06 10:43:00,74.7,74.4,29.86,ENE,76,0.0,2.0,99,0.04,,,0.48,WUHU216DAVISVP2,2013-06-06 14:43:00,
2013-06-06 10:48:00,74.8,74.5,29.85,ENE,77,0.0,1.0,99,0.05,,,0.49,WUHU216DAVISVP2,2013-06-06 14:48:00,
2013-06-06 10:53:00,74.8,74.5,29.85,NE,34,0.0,5.0,99,0.11,,,0.56,WUHU216DAVISVP2,2013-06-06 14:53:00,
2013-06-06 10:58:00,74.6,74.3,29.86,East,88,1.0,5.0,99,0.14,,,0.59,WUHU216DAVISVP2,2013-06-06 14:58:00,
2013-06-06 11:03:00,74.2,73.6,29.85,North,9,0.0,5.0,98,0.19,,,0.64,WUHU216DAVISVP2,2013-06-06 15:03:00,
2013-06-06 11:08:00,73.3,72.4,29.85,ENE,59,0.0,3.0,97,0.19,,,0.64,WUHU216DAVISVP2,2013-06-06 15:08:00,
2013-06-06 11:13:00,72.8,72.2,29.85,ENE,59,0.0,3.0,98,0.23,,,0.69,WUHU216DAVISVP2,2013-06-06 15:13:00,
2013-06-06 11:18:00,72.8,72.2,29.85,ENE,62,0.0,1.0,98,0.30,,,0.76,WUHU216DAVISVP2,2013-06-06 15:18:00,
2013-06-06 11:23:00,73.2,72.9,29.84,ENE,63,0.0,2.0,99,0.32,,,0.78,WUHU216DAVISVP2,2013-06-06 15:23:00,
2013-06-06 11:28:00,73.7,73.4,29.84,East,84,0.0,3.0,99,0.32,,,0.79,WUHU216DAVISVP2,2013-06-06 15:28:00,
2013-06-06 11:33:00,74.0,73.7,29.84,ENE,59,0.0,4.0,99,0.32,,,0.79,WUHU216DAVISVP2,2013-06-06 15:33:00,
2013-06-06 11:38:00,74.1,73.8,29.84,East,86,2.0,4.0,99,0.32,,,0.79,WUHU216DAVISVP2,2013-06-06 15:38:00,
2013-06-06 11:43:00,74.3,74.0,29.84,ESE,122,0.0,3.0,99,0.32,,,0.80,WUHU216DAVISVP2,2013-06-06 15:43:00,
2013-06-06 11:48:00,74.4,74.1,29.84,ENE,69,0.0,2.0,99,0.32,,,0.81,WUHU216DAVISVP2,2013-06-06 15:48:00,
2013-06-06 11:53:00,74.4,74.1,29.84,ENE,65,1.0,4.0,99,0.32,,,0.88,WUHU216DAVISVP2,2013-06-06 15:53:00,
2013-06-06 11:58:00,74.3,74.0,29.84,SE,128,1.0,4.0,99,0.36,,,0.95,WUHU216DAVISVP2,2013-06-06 15:58:00,
2013-06-06 12:03:00,74.1,73.8,29.84,NNE,31,3.0,5.0,99,0.34,,,0.98,WUHU216DAVISVP2,2013-06-06 16:03:00,
2013-06-06 12:08:00,73.3,72.7,29.84,ENE,57,2.0,7.0,98,0.35,,,0.99,WUHU216DAVISVP2,2013-06-06 16:08:00,
2013-06-06 12:13:00,72.7,72.1,29.84,NE,36,0.0,8.0,98,0.30,,,0.99,WUHU216DAVISVP2,2013-06-06 16:13:00,
2013-06-06 12:18:00,72.6,72.3,29.83,ESE,105,5.0,8.0,99,0.24,,,1.00,WUHU216DAVISVP2,2013-06-06 16:18:00,
2013-06-06 12:23:00,72.6,72.3,29.83,NE,34,0.0,6.0,99,0.22,,,1.00,WUHU216DAVISVP2,2013-06-06 16:23:00,
2013-06-06 12:28:00,72.5,72.2,29.83,NE,38,0.0,6.0,99,0.21,,,1.00,WUHU216DAVISVP2,2013-06-06 16:28:00,
2013-06-06 12:33:00,72.5,72.2,29.83,ENE,78,1.0,5.0,99,0.23,,,1.02,WUHU216DAVISVP2,2013-06-06 16:33:00,
2013-06-06 12:38:00,72.5,72.2,29.83,East,98,3.0,4.0,99,0.28,,,1.07,WUHU216DAVISVP2,2013-06-06 16:38:00,
2013-06-06 12:43:00,72.6,72.3,29.83,SSE,159,1.0,4.0,99,0.31,,,1.11,WUHU216DAVISVP2,2013-06-06 16:43:00,
2013-06-06 12:48:00,72.8,72.5,29.82,East,88,1.0,3.0,99,0.32,,,1.13,WUHU216DAVISVP2,2013-06-06 16:48:00,
2013-06-06 12:53:00,73.0,72.7,29.82,ENE,71,0.0,4.0,99,0.26,,,1.14,WUHU216DAVISVP2,2013-06-06 16:53:00,
2013-06-06 12:58:00,73.2,72.9,29.82,NE,53,0.0,4.0,99,0.21,,,1.16,WUHU216DAVISVP2,2013-06-06 16:58:00,
2013-06-06 13:03:00,73.3,73.0,29.82,ENE,74,0.0,2.0,99,0.23,,,1.21,WUHU216DAVISVP2,2013-06-06 17:03:00,
2013-06-06 13:08:00,73.3,73.0,29.82,NE,39,0.0,7.0,99,0.29,,,1.28,WUHU216DAVISVP2,2013-06-06 17:08:00,
2013-06-06 13:13:00,73.2,72.9,29.82,East,96,1.0,7.0,99,0.31,,,1.30,WUHU216DAVISVP2,2013-06-06 17:13:00,
2013-06-06 13:18:00,73.0,72.7,29.81,NE,42,4.0,6.0,99,0.31,,,1.31,WUHU216DAVISVP2,2013-06-06 17:18:00,
2013-06-06 13:23:00,73.2,72.9,29.80,ENE,67,0.0,5.0,99,0.31,,,1.31,WUHU216DAVISVP2,2013-06-06 17:23:00,
2013-06-06 13:28:00,73.4,73.1,29.80,NE,51,0.0,5.0,99,0.31,,,1.31,WUHU216DAVISVP2,2013-06-06 17:28:00,
2013-06-06 13:33:00,73.5,73.2,29.80,NE,48,1.0,5.0,99,0.29,,,1.31,WUHU216DAVISVP2,2013-06-06 17:33:00,
2013-06-06 13:38:00,73.4,73.1,29.79,East,86,2.0,5.0,99,0.25,,,1.32,WUHU216DAVISVP2,2013-06-06 17:38:00,
2013-06-06 13:43:00,73.5,73.2,29.79,NE,46,0.0,5.0,99,0.21,,,1.32,WUHU216DAVISVP2,2013-06-06 17:43:00,
2013-06-06 13:48:00,73.7,73.4,29.79,ENE,71,0.0,5.0,99,0.19,,,1.32,WUHU216DAVISVP2,2013-06-06 17:48:00,
2013-06-06 13:53:00,73.7,73.4,29.78,ENE,76,0.0,5.0,99,0.18,,,1.32,WUHU216DAVISVP2,2013-06-06 17:53:00,
2013-06-06 13:58:00,73.7,73.4,29.78,NNE,31,0.0,5.0,99,0.16,,,1.32,WUHU216DAVISVP2,2013-06-06 17:58:00,
2013-06-06 14:03:00,73.9,73.6,29.78,ESE,112,0.0,5.0,99,0.11,,,1.32,WUHU216DAVISVP2,2013-06-06 18:03:00,
2013-06-06 14:08:00,73.9,73.6,29.77,ENE,69,1.0,6.0,99,0.04,,,1.32,WUHU216DAVISVP2,2013-06-06 18:08:00,
2013-06-06 14:13:00,73.7,73.4,29.77,ENE,61,0.0,6.0,99,0.02,,,1.32,WUHU216DAVISVP2,2013-06-06 18:13:00,
2013-06-06 14:18:00,73.8,73.5,29.76,East,85,3.0,5.0,99,0.01,,,1.32,WUHU216DAVISVP2,2013-06-06 18:18:00,
2013-06-06 14:23:00,73.9,73.6,29.76,ENE,67,0.0,6.0,99,0.02,,,1.33,WUHU216DAVISVP2,2013-06-06 18:23:00,
2013-06-06 14:28:00,73.9,73.6,29.75,ENE,59,3.0,6.0,99,0.02,,,1.33,WUHU216DAVISVP2,2013-06-06 18:28:00,
2013-06-06 14:33:00,74.0,73.7,29.75,East,80,0.0,10.0,99,0.02,,,1.33,WUHU216DAVISVP2,2013-06-06 18:33:00,
2013-06-06 14:38:00,74.1,73.8,29.74,ENE,73,3.0,10.0,99,0.01,,,1.33,WUHU216DAVISVP2,2013-06-06 18:38:00,
2013-06-06 14:43:00,74.2,73.9,29.74,NE,50,4.0,7.0,99,0.01,,,1.33,WUHU216DAVISVP2,2013-06-06 18:43:00,
2013-06-06 14:48:00,74.3,74.0,29.73,ENE,77,4.0,7.0,99,0.01,,,1.33,WUHU216DAVISVP2,2013-06-06 18:48:00,
2013-06-06 14:53:00,74.2,73.9,29.73,East,86,0.0,6.0,99,0.01,,,1.33,WUHU216DAVISVP2,2013-06-06 18:53:00,
2013-06-06 14:58:00,74.3,74.0,29.72,NE,35,3.0,5.0,99,0.01,,,1.33,WUHU216DAVISVP2,2013-06-06 18:58:00,
2013-06-06 15:03:00,74.3,74.0,29.72,NE,53,0.0,6.0,99,0.01,,,1.33,WUHU216DAVISVP2,2013-06-06 19:03:00,
2013-06-06 15:08:00,74.3,74.0,29.71,NE,41,1.0,6.0,99,0.01,,,1.33,WUHU216DAVISVP2,2013-06-06 19:08:00,
2013-06-06 15:13:00,74.2,73.9,29.71,ENE,64,2.0,6.0,99,0.01,,,1.33,WUHU216DAVISVP2,2013-06-06 19:13:00,
2013-06-06 15:18:00,74.3,74.0,29.71,WSW,245,1.0,6.0,99,0.02,,,1.34,WUHU216DAVISVP2,2013-06-06 19:18:00,
2013-06-06 15:23:00,74.4,74.1,29.70,East,94,2.0,5.0,99,0.01,,,1.34,WUHU216DAVISVP2,2013-06-06 19:23:00,
2013-06-06 15:28:00,74.6,74.3,29.70,East,91,0.0,5.0,99,0.01,,,1.34,WUHU216DAVISVP2,2013-06-06 19:28:00,
2013-06-06 15:33:00,74.7,74.4,29.70,ENE,57,0.0,5.0,99,0.02,,,1.35,WUHU216DAVISVP2,2013-06-06 19:33:00,
2013-06-06 15:34:00,74.7,74.4,29.70,ENE,68,0.0,5.0,99,0.02,,,1.35,WUHU216DAVISVP2,2013-06-06 19:34:00,
2013-06-06 15:39:00,74.7,74.4,29.69,ENE,74,2.0,5.0,99,0.02,,,1.35,WUHU216DAVISVP2,2013-06-06 19:39:00,
2013-06-06 15:44:00,74.7,74.4,29.69,NNE,32,0.0,5.0,99,0.13,,,1.46,WUHU216DAVISVP2,2013-06-06 19:44:00,
2013-06-06 15:49:00,74.7,74.4,29.69,ENE,57,0.0,6.0,99,0.19,,,1.52,WUHU216DAVISVP2,2013-06-06 19:49:00,
2013-06-06 15:54:00,74.8,74.5,29.68,ENE,75,0.0,6.0,99,0.20,,,1.53,WUHU216DAVISVP2,2013-06-06 19:54:00,
2013-06-06 15:59:00,74.9,74.6,29.68,East,86,2.0,5.0,99,0.21,,,1.54,WUHU216DAVISVP2,2013-06-06 19:59:00,
2013-06-06 16:04:00,74.9,74.6,29.68,NNE,16,0.0,10.0,99,0.22,,,1.55,WUHU216DAVISVP2,2013-06-06 20:04:00,
2013-06-06 16:09:00,74.8,74.5,29.67,NNE,22,0.0,10.0,99,0.24,,,1.57,WUHU216DAVISVP2,2013-06-06 20:09:00,
2013-06-06 16:14:00,74.9,74.6,29.66,North,11,0.0,5.0,99,0.26,,,1.59,WUHU216DAVISVP2,2013-06-06 20:14:00,
2013-06-06 16:19:00,75.0,74.7,29.66,NE,46,0.0,4.0,99,0.26,,,1.60,WUHU216DAVISVP2,2013-06-06 20:19:00,
2013-06-06 16:24:00,75.1,75.1,29.66,East,94,0.0,5.0,100,0.27,,,1.61,WUHU216DAVISVP2,2013-06-06 20:24:00,
2013-06-06 16:29:00,75.3,75.3,29.66,ENE,74,0.0,5.0,100,0.35,,,1.69,WUHU216DAVISVP2,2013-06-06 20:29:00,
2013-06-06 16:34:00,75.3,75.3,29.67,West,261,3.0,4.0,100,0.44,,,1.80,WUHU216DAVISVP2,2013-06-06 20:34:00,
2013-06-06 16:39:00,75.4,75.4,29.67,ENE,63,2.0,4.0,100,0.46,,,1.81,WUHU216DAVISVP2,2013-06-06 20:39:00,
2013-06-06 16:44:00,75.3,75.3,29.66,ENE,71,1.0,5.0,100,0.35,,,1.81,WUHU216DAVISVP2,2013-06-06 20:44:00,
2013-06-06 16:49:00,75.5,75.5,29.66,ENE,61,0.0,6.0,100,0.29,,,1.81,WUHU216DAVISVP2,2013-06-06 20:49:00,
2013-06-06 16:54:00,75.7,75.7,29.65,East,98,0.0,6.0,100,0.28,,,1.81,WUHU216DAVISVP2,2013-06-06 20:54:00,
2013-06-06 16:59:00,75.8,75.8,29.65,NE,47,0.0,3.0,100,0.27,,,1.81,WUHU216DAVISVP2,2013-06-06 20:59:00,
2013-06-06 17:04:00,75.8,75.8,29.65,ENE,65,4.0,5.0,100,0.26,,,1.81,WUHU216DAVISVP2,2013-06-06 21:04:00,
2013-06-06 17:09:00,75.8,75.8,29.64,ENE,71,0.0,5.0,100,0.24,,,1.81,WUHU216DAVISVP2,2013-06-06 21:09:00,
2013-06-06 17:14:00,75.9,75.9,29.64,ENE,70,0.0,5.0,100,0.22,,,1.81,WUHU216DAVISVP2,2013-06-06 21:14:00,
2013-06-06 17:19:00,76.1,76.1,29.64,ENE,77,0.0,4.0,100,0.21,,,1.81,WUHU216DAVISVP2,2013-06-06 21:19:00,
2013-06-06 17:24:00,76.2,76.2,29.63,ENE,75,1.0,4.0,100,0.20,,,1.81,WUHU216DAVISVP2,2013-06-06 21:24:00,
2013-06-06 17:29:00,76.1,76.1,29.63,East,90,2.0,5.0,100,0.12,,,1.81,WUHU216DAVISVP2,2013-06-06 21:29:00,
2013-06-06 17:34:00,75.9,75.9,29.63,ENE,57,0.0,5.0,100,0.01,,,1.81,WUHU216DAVISVP2,2013-06-06 21:34:00,
2013-06-06 17:39:00,75.8,75.8,29.63,NE,53,0.0,5.0,100,0.00,,,1.81,WUHU216DAVISVP2,2013-06-06 21:39:00,
2013-06-06 17:44:00,75.9,75.9,29.63,NE,55,0.0,5.0,100,0.01,,,1.82,WUHU216DAVISVP2,2013-06-06 21:44:00,
2013-06-06 17:49:00,76.2,75.9,29.63,NE,44,2.0,5.0,99,0.02,,,1.83,WUHU216DAVISVP2,2013-06-06 21:49:00,
2013-06-06 17:54:00,76.1,75.8,29.62,ENE,70,0.0,4.0,99,0.02,,,1.83,WUHU216DAVISVP2,2013-06-06 21:54:00,
2013-06-06 17:59:00,76.1,75.8,29.62,NE,53,0.0,4.0,99,0.02,,,1.83,WUHU216DAVISVP2,2013-06-06 21:59:00,
2013-06-06 18:04:00,76.0,75.7,29.61,NE,49,0.0,5.0,99,0.02,,,1.83,WUHU216DAVISVP2,2013-06-06 22:04:00,
2013-06-06 18:09:00,75.8,75.5,29.61,NE,46,2.0,5.0,99,0.02,,,1.83,WUHU216DAVISVP2,2013-06-06 22:09:00,
2013-06-06 18:14:00,75.8,75.5,29.60,ENE,71,0.0,5.0,99,0.02,,,1.83,WUHU216DAVISVP2,2013-06-06 22:14:00,
2013-06-06 18:19:00,75.8,75.8,29.60,NE,55,2.0,6.0,100,0.02,,,1.83,WUHU216DAVISVP2,2013-06-06 22:19:00,
2013-06-06 18:24:00,75.8,75.8,29.60,SE,136,0.0,7.0,100,0.02,,,1.83,WUHU216DAVISVP2,2013-06-06 22:24:00,
2013-06-06 18:29:00,75.9,75.6,29.60,NE,53,3.0,7.0,99,0.02,,,1.83,WUHU216DAVISVP2,2013-06-06 22:29:00,
2013-06-06 18:34:00,75.8,75.5,29.60,NE,51,0.0,6.0,99,0.02,,,1.83,WUHU216DAVISVP2,2013-06-06 22:34:00,
2013-06-06 18:39:00,75.8,75.5,29.60,ENE,67,3.0,6.0,99,0.02,,,1.83,WUHU216DAVISVP2,2013-06-06 22:39:00,
2013-06-06 18:44:00,75.8,75.5,29.60,East,90,1.0,6.0,99,0.01,,,1.83,WUHU216DAVISVP2,2013-06-06 22:44:00,
2013-06-06 18:49:00,75.8,75.5,29.60,NE,50,4.0,6.0,99,0.00,,,1.83,WUHU216DAVISVP2,2013-06-06 22:49:00,
2013-06-06 18:54:00,75.8,75.5,29.60,East,80,4.0,7.0,99,0.00,,,1.83,WUHU216DAVISVP2,2013-06-06 22:54:00,
2013-06-06 18:59:00,75.9,75.6,29.60,East,88,0.0,7.0,99,0.00,,,1.83,WUHU216DAVISVP2,2013-06-06 22:59:00,
2013-06-06 19:04:00,76.0,75.7,29.60,ENE,58,3.0,10.0,99,0.00,,,1.83,WUHU216DAVISVP2,2013-06-06 23:04:00,
2013-06-06 19:09:00,76.1,75.8,29.59,East,81,0.0,10.0,99,0.00,,,1.83,WUHU216DAVISVP2,2013-06-06 23:09:00,
2013-06-06 19:14:00,76.1,75.5,29.59,ENE,66,1.0,7.0,98,0.00,,,1.83,WUHU216DAVISVP2,2013-06-06 23:14:00,
2013-06-06 19:19:00,76.2,75.6,29.59,ENE,69,3.0,6.0,98,0.00,,,1.83,WUHU216DAVISVP2,2013-06-06 23:19:00,
2013-06-06 19:24:00,76.2,75.6,29.59,East,84,1.0,4.0,98,0.00,,,1.83,WUHU216DAVISVP2,2013-06-06 23:24:00,
2013-06-06 19:29:00,76.2,75.6,29.59,NE,44,3.0,6.0,98,0.00,,,1.83,WUHU216DAVISVP2,2013-06-06 23:29:00,
2013-06-06 19:34:00,76.2,75.6,29.59,ENE,60,2.0,6.0,98,0.00,,,1.83,WUHU216DAVISVP2,2013-06-06 23:34:00,
2013-06-06 19:39:00,76.1,75.2,29.59,NE,52,2.0,9.0,97,0.00,,,1.83,WUHU216DAVISVP2,2013-06-06 23:39:00,
2013-06-06 19:44:00,76.1,75.2,29.59,ENE,66,1.0,9.0,97,0.00,,,1.83,WUHU216DAVISVP2,2013-06-06 23:44:00,
2013-06-06 19:49:00,76.5,75.2,29.59,ENE,63,1.0,6.0,96,0.00,,,1.83,WUHU216DAVISVP2,2013-06-06 23:49:00,
2013-06-06 19:54:00,76.4,74.8,29.59,NE,53,0.0,6.0,95,0.00,,,1.83,WUHU216DAVISVP2,2013-06-06 23:54:00,
2013-06-06 19:59:00,76.2,74.0,29.59,ESE,120,0.0,5.0,93,0.00,,,1.83,WUHU216DAVISVP2,2013-06-06 23:59:00,
2013-06-06 20:04:00,75.9,73.4,29.59,ENE,66,0.0,6.0,92,0.00,,,1.83,WUHU216DAVISVP2,2013-06-07 00:04:00,
2013-06-06 20:09:00,75.7,72.9,29.59,ENE,65,4.0,6.0,91,0.00,,,1.83,WUHU216DAVISVP2,2013-06-07 00:09:00,
2013-06-06 20:14:00,75.9,73.1,29.59,NE,46,1.0,5.0,91,0.00,,,1.83,WUHU216DAVISVP2,2013-06-07 00:14:00,
2013-06-06 20:19:00,75.9,72.7,29.59,NE,54,1.0,5.0,90,0.00,,,1.83,WUHU216DAVISVP2,2013-06-07 00:19:00,
2013-06-06 20:24:00,75.8,73.0,29.59,ENE,71,2.0,5.0,91,0.00,,,1.83,WUHU216DAVISVP2,2013-06-07 00:24:00,
2013-06-06 20:29:00,75.7,72.9,29.59,ESE,111,0.0,5.0,91,0.00,,,1.83,WUHU216DAVISVP2,2013-06-07 00:29:00,
2013-06-06 20:34:00,75.5,72.7,29.59,ENE,58,2.0,4.0,91,0.00,,,1.83,WUHU216DAVISVP2,2013-06-07 00:34:00,
2013-06-06 20:39:00,75.5,72.7,29.59,ENE,61,2.0,5.0,91,0.00,,,1.83,WUHU216DAVISVP2,2013-06-07 00:39:00,
2013-06-06 20:44:00,75.7,72.9,29.59,East,92,3.0,5.0,91,0.00,,,1.83,WUHU216DAVISVP2,2013-06-07 00:44:00,
2013-06-06 20:49:00,75.9,72.7,29.59,NE,45,2.0,7.0,90,0.00,,,1.83,WUHU216DAVISVP2,2013-06-07 00:49:00,
2013-06-06 20:54:00,75.9,72.7,29.59,ENE,62,0.0,7.0,90,0.00,,,1.83,WUHU216DAVISVP2,2013-06-07 00:54:00,
2013-06-06 20:59:00,75.8,73.0,29.59,NE,35,2.0,7.0,91,0.00,,,1.83,WUHU216DAVISVP2,2013-06-07 00:59:00,
2013-06-06 21:04:00,75.4,72.9,29.59,NE,42,2.0,7.0,92,0.00,,,1.83,WUHU216DAVISVP2,2013-06-07 01:04:00,
2013-06-06 21:10:00,74.9,72.7,29.59,NNE,15,0.0,6.0,93,0.00,,,1.83,WUHU216DAVISVP2,2013-06-07 01:10:00,
2013-06-06 21:15:00,74.7,72.5,29.59,ENE,76,1.0,6.0,93,0.00,,,1.83,WUHU216DAVISVP2,2013-06-07 01:15:00,
2013-06-06 21:20:00,74.6,72.4,29.59,East,82,1.0,6.0,93,0.00,,,1.83,WUHU216DAVISVP2,2013-06-07 01:20:00,
2013-06-06 21:25:00,74.6,72.7,29.59,East,80,0.0,3.0,94,0.00,,,1.83,WUHU216DAVISVP2,2013-06-07 01:25:00,
2013-06-06 21:30:00,74.5,72.6,29.59,ENE,65,5.0,5.0,94,0.00,,,1.83,WUHU216DAVISVP2,2013-06-07 01:30:00,
2013-06-06 21:35:00,74.5,72.6,29.58,NE,54,0.0,5.0,94,0.00,,,1.83,WUHU216DAVISVP2,2013-06-07 01:35:00,
2013-06-06 21:40:00,74.4,72.5,29.58,NE,55,0.0,6.0,94,0.00,,,1.83,WUHU216DAVISVP2,2013-06-07 01:40:00,
2013-06-06 21:45:00,74.4,72.5,29.58,ENE,72,3.0,6.0,94,0.00,,,1.83,WUHU216DAVISVP2,2013-06-07 01:45:00,
2013-06-06 21:50:00,74.4,72.5,29.58,East,81,2.0,5.0,94,0.00,,,1.83,WUHU216DAVISVP2,2013-06-07 01:50:00,
2013-06-06 21:55:00,74.4,72.5,29.58,ENE,67,0.0,5.0,94,0.00,,,1.83,WUHU216DAVISVP2,2013-06-07 01:55:00,
2013-06-06 22:00:00,74.5,72.6,29.59,NE,40,1.0,5.0,94,0.00,,,1.83,WUHU216DAVISVP2,2013-06-07 02:00:00,
2013-06-06 22:05:00,74.6,72.7,29.59,SW,222,1.0,6.0,94,0.00,,,1.83,WUHU216DAVISVP2,2013-06-07 02:05:00,
2013-06-06 22:10:00,74.6,72.7,29.59,East,92,1.0,6.0,94,0.00,,,1.83,WUHU216DAVISVP2,2013-06-07 02:10:00,
2013-06-06 22:15:00,74.6,72.7,29.58,ESE,109,1.0,7.0,94,0.00,,,1.83,WUHU216DAVISVP2,2013-06-07 02:15:00,
2013-06-06 22:20:00,74.6,72.7,29.58,NE,55,0.0,7.0,94,0.00,,,1.83,WUHU216DAVISVP2,2013-06-07 02:20:00,
2013-06-06 22:25:00,74.5,72.6,29.58,East,85,1.0,7.0,94,0.00,,,1.83,WUHU216DAVISVP2,2013-06-07 02:25:00,
2013-06-06 22:30:00,74.2,72.3,29.58,NE,53,2.0,8.0,94,0.00,,,1.83,WUHU216DAVISVP2,2013-06-07 02:30:00,
2013-06-06 22:35:00,74.0,72.4,29.58,ENE,57,0.0,8.0,95,0.00,,,1.83,WUHU216DAVISVP2,2013-06-07 02:35:00,
2013-06-06 22:40:00,73.9,72.3,29.57,ENE,69,0.0,6.0,95,0.00,,,1.83,WUHU216DAVISVP2,2013-06-07 02:40:00,
2013-06-06 22:45:00,73.9,72.3,29.57,ESE,103,2.0,11.0,95,0.00,,,1.83,WUHU216DAVISVP2,2013-06-07 02:45:00,
2013-06-06 22:50:00,74.0,72.4,29.57,ENE,78,2.0,11.0,95,0.00,,,1.83,WUHU216DAVISVP2,2013-06-07 02:50:00,
2013-06-06 22:55:00,74.0,72.4,29.57,NE,46,2.0,6.0,95,0.00,,,1.83,WUHU216DAVISVP2,2013-06-07 02:55:00,
2013-06-06 23:00:00,74.1,72.2,29.57,ENE,61,0.0,6.0,94,0.00,,,1.83,WUHU216DAVISVP2,2013-06-07 03:00:00,
2013-06-06 23:05:00,74.3,72.4,29.57,ENE,65,2.0,6.0,94,0.00,,,1.83,WUHU216DAVISVP2,2013-06-07 03:05:00,
2013-06-06 23:10:00,74.4,72.5,29.57,ENE,59,1.0,6.0,94,0.00,,,1.83,WUHU216DAVISVP2,2013-06-07 03:10:00,
2013-06-06 23:15:00,74.3,72.4,29.57,NE,42,0.0,6.0,94,0.00,,,1.83,WUHU216DAVISVP2,2013-06-07 03:15:00,
2013-06-06 23:20:00,74.1,72.2,29.57,ENE,67,6.0,10.0,94,0.00,,,1.83,WUHU216DAVISVP2,2013-06-07 03:20:00,
2013-06-06 23:25:00,74.0,72.4,29.57,NE,42,4.0,10.0,95,0.00,,,1.83,WUHU216DAVISVP2,2013-06-07 03:25:00,
2013-06-06 23:30:00,74.0,72.4,29.57,East,83,1.0,7.0,95,0.01,,,1.84,WUHU216DAVISVP2,2013-06-07 03:30:00,
2013-06-06 23:35:00,73.9,72.3,29.57,NE,55,2.0,7.0,95,0.01,,,1.84,WUHU216DAVISVP2,2013-06-07 03:35:00,
2013-06-06 23:40:00,73.9,72.3,29.57,East,98,2.0,9.0,95,0.01,,,1.84,WUHU216DAVISVP2,2013-06-07 03:40:00,
2013-06-06 23:45:00,74.0,72.8,29.57,NE,45,3.0,9.0,96,0.01,,,1.84,WUHU216DAVISVP2,2013-06-07 03:45:00,
2013-06-06 23:50:00,74.0,72.8,29.57,East,91,0.0,9.0,96,0.01,,,1.84,WUHU216DAVISVP2,2013-06-07 03:50:00,
2013-06-06 23:55:00,73.9,72.7,29.57,ENE,78,2.0,8.0,96,0.01,,,1.84,WUHU216DAVISVP2,2013-06-07 03:55:00,